Sealy, TX (77474)

5:19 PM CST on December 06, 2016 (GMT -0600)
South Sealy | | Change Station

Elev 197 ft 29.76 °N, 96.16 °W | Updated 20 seconds ago

Clear
Clear
57.4 °F
Feels Like 57.4 °F
N
2.9
Wind Variable Wind from SE
Gusts 4.9 mph

Today
High -- | Low -- °F
--% Chance of Precip.
Yesterday
High -- | Low -- °F
Precip. -- in
Pressure 29.95 in
Visibility 10.0 miles
Clouds Clear
Dew Point 36 °F
Humidity 45%
Rainfall 0.18 in
Snow Depth Not available.
7:06 AM 5:25 PM
Waxing Crescent, 46% visible
METAR KSGR 062253Z 34009KT 10SM CLR 17/11 A2994 RMK AO2 SLP141 T01720111
Pressure 29.95 in
Visibility 10.0 miles
Clouds Clear
Dew Point 36 °F
Humidity 45%
Rainfall 0.18 in
Snow Depth Not available.
7:06 AM 5:25 PM
Waxing Crescent, 46% visible
METAR KSGR 062253Z 34009KT 10SM CLR 17/11 A2994 RMK AO2 SLP141 T01720111

10-Day Weather Forecast

Almanac

Astronomy

Dec. 06, 2016 Rise Set
Actual Time
Civil Twilight
Nautical Twilight
Astronomical Twilight
Moon
Length of Visible Light
Length of Day
Tomorrow will be .
, % of the Moon is Illuminated

Today's Extremes

State Highs State Lows

Community

WunderPhotos

Upload Photos

1,956,033 photos uploaded!

WunderBlog® & News

Nearby

Air Quality

  Air Quality AQ Index Pollutant
Not available.

Snow Depth

Station Depth Elevation

Earthquake Activity

City Distance Mag. Time & Date
Minimum magnitude displayed is 2.5.

Coastal Water Temperatures

Place Temperature

Stations

Nearby Weather Stations

Station Location Temp. Windchill Dew Point Humidity Wind Precip. Elev Updated Type
                   

Watches & Warnings

There are currently no watches in effect.